createdAt,value
2018-07-26T00:01:26.701Z,22.31
2018-07-26T00:03:54.963Z,22.40
2018-07-26T00:06:23.235Z,22.40
2018-07-26T00:08:51.508Z,22.36
2018-07-26T00:11:19.687Z,22.20
2018-07-26T00:13:47.970Z,22.23
2018-07-26T00:16:16.239Z,22.21
2018-07-26T00:18:44.631Z,22.20
2018-07-26T00:21:12.906Z,22.22
2018-07-26T00:23:41.146Z,22.27
2018-07-26T00:26:09.658Z,22.29
2018-07-26T00:28:37.915Z,22.29
2018-07-26T00:31:06.314Z,22.23
2018-07-26T00:33:34.584Z,22.17
2018-07-26T00:36:02.841Z,22.13
2018-07-26T00:38:30.766Z,22.12
2018-07-26T00:40:59.024Z,22.17
2018-07-26T00:43:27.257Z,22.19
2018-07-26T00:45:55.422Z,22.23
2018-07-26T00:48:23.713Z,22.24
2018-07-26T00:50:51.989Z,22.14
2018-07-26T00:53:20.366Z,21.91
2018-07-26T00:55:48.653Z,21.83
2018-07-26T00:58:16.918Z,21.87
2018-07-26T01:00:45.098Z,21.91
2018-07-26T01:03:13.569Z,21.87
2018-07-26T01:05:41.853Z,21.78
2018-07-26T01:08:10.238Z,21.74
2018-07-26T01:10:38.509Z,21.74
2018-07-26T01:13:06.789Z,21.76
2018-07-26T01:15:35.162Z,21.73
2018-07-26T01:18:03.546Z,21.77
2018-07-26T01:20:32.009Z,21.83
2018-07-26T01:23:00.295Z,21.85
2018-07-26T01:25:28.358Z,21.68
2018-07-26T01:27:56.741Z,21.65
2018-07-26T01:30:25.222Z,21.71
2018-07-26T01:32:53.604Z,21.81
2018-07-26T01:35:21.978Z,21.79
2018-07-26T01:37:50.354Z,21.79
2018-07-26T01:40:18.521Z,21.81
2018-07-26T01:43:56.323Z,21.78
2018-07-26T01:46:25.680Z,21.67
2018-07-26T01:48:54.016Z,21.38
2018-07-26T01:51:22.389Z,21.34
2018-07-26T01:53:50.657Z,21.46
2018-07-26T01:56:19.137Z,21.55
2018-07-26T01:58:47.618Z,21.46
2018-07-26T02:01:15.992Z,21.32
2018-07-26T02:03:44.382Z,21.22
2018-07-26T02:06:12.554Z,21.32
2018-07-26T02:08:40.942Z,21.39
2018-07-26T02:11:09.001Z,21.36
2018-07-26T02:13:37.382Z,21.34
2018-07-26T02:16:05.749Z,21.29
2018-07-26T02:18:34.237Z,21.30
2018-07-26T02:21:02.718Z,21.00
2018-07-26T02:23:31.197Z,21.09
2018-07-26T02:25:59.452Z,20.96
2018-07-26T02:28:27.742Z,21.10
2018-07-26T02:30:56.221Z,21.20
2018-07-26T02:33:24.401Z,21.19
2018-07-26T02:35:52.876Z,21.25
2018-07-26T02:38:21.046Z,21.32
2018-07-26T02:40:49.428Z,21.29
2018-07-26T02:43:17.717Z,21.31
2018-07-26T02:45:45.986Z,21.23
2018-07-26T02:48:14.262Z,21.30
2018-07-26T02:50:42.402Z,21.35
2018-07-26T02:53:10.709Z,21.12
2018-07-26T02:55:39.086Z,20.94
2018-07-26T02:58:07.550Z,21.00
2018-07-26T03:00:35.842Z,21.10
2018-07-26T03:03:04.220Z,21.12
2018-07-26T03:05:32.598Z,20.91
2018-07-26T03:08:00.876Z,20.99
2018-07-26T03:10:29.242Z,21.09
2018-07-26T03:12:57.126Z,21.14
2018-07-26T03:15:25.595Z,20.92
2018-07-26T03:17:53.771Z,20.90
2018-07-26T03:20:21.941Z,20.97
2018-07-26T03:22:50.210Z,20.94
2018-07-26T03:25:18.502Z,21.03
2018-07-26T03:27:46.766Z,21.10
2018-07-26T03:30:15.133Z,21.18
2018-07-26T03:32:43.317Z,21.24
2018-07-26T03:35:11.697Z,21.13
2018-07-26T03:37:40.074Z,21.08
2018-07-26T03:40:08.454Z,21.19
2018-07-26T03:42:36.832Z,21.11
2018-07-26T03:45:05.297Z,21.11
2018-07-26T03:47:33.677Z,21.17
2018-07-26T03:50:01.969Z,21.20
2018-07-26T03:52:30.229Z,21.31
2018-07-26T03:54:58.523Z,21.34
2018-07-26T03:57:26.889Z,21.38
2018-07-26T03:59:55.151Z,21.34
2018-07-26T04:02:23.442Z,21.19
2018-07-26T04:04:51.719Z,21.31
2018-07-26T04:07:19.615Z,21.35
2018-07-26T04:09:47.852Z,21.44
2018-07-26T04:12:16.131Z,21.54
2018-07-26T04:14:44.298Z,21.66
2018-07-26T04:17:12.587Z,21.72
2018-07-26T04:19:40.848Z,21.59
2018-07-26T04:22:09.338Z,21.54
2018-07-26T04:24:37.550Z,21.38
2018-07-26T04:27:05.892Z,21.38
2018-07-26T04:29:34.260Z,21.24
2018-07-26T04:32:02.684Z,21.35
2018-07-26T04:34:31.018Z,21.38
2018-07-26T04:36:59.397Z,21.50
2018-07-26T04:39:27.565Z,21.64
2018-07-26T04:41:55.940Z,21.67
2018-07-26T04:44:24.126Z,21.66
2018-07-26T04:46:52.289Z,21.61
2018-07-26T04:49:20.568Z,21.62
2018-07-26T04:51:49.045Z,21.52
2018-07-26T04:54:17.121Z,21.51
2018-07-26T04:56:45.488Z,21.50
2018-07-26T04:59:13.753Z,21.42
2018-07-26T05:01:41.922Z,21.38
2018-07-26T05:04:10.221Z,21.52
2018-07-26T05:06:38.502Z,21.68
2018-07-26T05:09:08.331Z,21.78
2018-07-26T05:11:36.781Z,21.93
2018-07-26T05:14:05.162Z,22.01
2018-07-26T05:16:33.653Z,22.05
2018-07-26T05:19:02.073Z,22.16
2018-07-26T05:21:30.756Z,22.27
2018-07-26T05:23:59.293Z,22.40
2018-07-26T05:26:27.665Z,22.48
2018-07-26T05:28:55.838Z,22.53
2018-07-26T05:31:24.214Z,22.72
2018-07-26T05:33:52.606Z,22.72
2018-07-26T05:36:20.977Z,22.71
2018-07-26T05:38:49.146Z,22.81
2018-07-26T05:41:17.520Z,22.79
2018-07-26T05:43:45.804Z,22.76
2018-07-26T05:46:14.291Z,22.89
2018-07-26T05:48:42.653Z,22.94
2018-07-26T05:51:11.145Z,23.07
2018-07-26T05:53:39.514Z,23.17
2018-07-26T05:56:07.992Z,23.09
2018-07-26T05:58:36.373Z,23.03
2018-07-26T06:01:04.757Z,23.10
2018-07-26T06:03:33.125Z,23.05
2018-07-26T06:06:01.619Z,23.14
2018-07-26T06:08:29.982Z,23.18
2018-07-26T06:10:58.301Z,23.19
2018-07-26T06:13:26.741Z,23.32
2018-07-26T06:15:55.028Z,23.29
2018-07-26T06:18:22.861Z,23.36
2018-07-26T06:20:51.158Z,23.43
2018-07-26T06:23:19.533Z,23.49
2018-07-26T06:25:48.229Z,23.52
2018-07-26T06:28:16.651Z,23.47
2018-07-26T06:30:44.874Z,23.46
2018-07-26T06:33:13.366Z,23.48
2018-07-26T06:35:41.535Z,23.56
2018-07-26T06:38:09.910Z,23.61
2018-07-26T06:40:38.177Z,23.52
2018-07-26T06:43:06.453Z,23.51
2018-07-26T06:45:34.842Z,23.64
2018-07-26T06:48:03.120Z,23.78
2018-07-26T06:50:31.485Z,23.92
2018-07-26T06:53:00.008Z,23.99
2018-07-26T06:55:28.341Z,23.84
2018-07-26T06:57:56.817Z,23.92
2018-07-26T07:00:25.202Z,23.87
2018-07-26T07:02:53.614Z,24.06
2018-07-26T07:05:21.957Z,23.95
2018-07-26T07:07:50.228Z,23.84
2018-07-26T07:10:18.621Z,24.01
2018-07-26T07:12:46.792Z,24.05
2018-07-26T07:15:15.178Z,24.13
2018-07-26T07:17:43.428Z,24.12
2018-07-26T07:20:12.035Z,24.06
2018-07-26T07:22:40.293Z,24.07
2018-07-26T07:25:08.682Z,24.22
2018-07-26T07:27:36.561Z,24.37
2018-07-26T07:30:06.861Z,24.49
2018-07-26T07:32:35.146Z,24.27
2018-07-26T07:35:03.426Z,24.25
2018-07-26T07:37:31.798Z,24.18
2018-07-26T07:40:00.083Z,24.22
2018-07-26T07:42:28.349Z,24.35
2018-07-26T07:44:56.734Z,24.41
2018-07-26T07:47:25.150Z,24.55
2018-07-26T07:49:53.473Z,24.43
2018-07-26T07:52:21.948Z,24.39
2018-07-26T07:54:50.237Z,24.26
2018-07-26T07:57:43.424Z,24.21
2018-07-26T08:02:22.655Z,24.26
2018-07-26T08:08:00.512Z,24.35
2018-07-26T08:10:49.302Z,24.54
2018-07-26T08:21:33.619Z,25.02
2018-07-26T08:24:01.893Z,25.05
2018-07-26T08:26:30.067Z,24.95
2018-07-26T08:28:58.448Z,25.08
2018-07-26T08:31:26.824Z,25.02
2018-07-26T08:33:55.134Z,25.08
2018-07-26T08:36:23.354Z,25.08
2018-07-26T08:38:51.756Z,25.04
2018-07-26T08:41:20.287Z,25.34
2018-07-26T08:43:48.712Z,25.51
2018-07-26T08:46:17.081Z,25.63
2018-07-26T08:48:45.359Z,25.54
2018-07-26T08:51:13.650Z,25.75
2018-07-26T08:53:41.914Z,25.74
2018-07-26T08:56:10.184Z,25.83
2018-07-26T08:58:38.460Z,25.91
2018-07-26T09:01:06.839Z,25.89
2018-07-26T09:03:35.257Z,25.97
2018-07-26T09:06:03.702Z,26.10
2018-07-26T09:08:31.873Z,26.10
2018-07-26T09:11:00.308Z,26.26
2018-07-26T09:13:28.487Z,26.25
2018-07-26T09:15:56.727Z,26.33
2018-07-26T09:18:24.974Z,26.34
2018-07-26T09:20:53.282Z,26.19
2018-07-26T09:23:21.729Z,26.20
2018-07-26T09:25:49.996Z,26.11
2018-07-26T09:28:18.369Z,26.16
2018-07-26T09:30:46.566Z,25.92
2018-07-26T09:33:14.988Z,26.00
2018-07-26T09:35:42.850Z,26.27
2018-07-26T09:38:10.966Z,26.44
2018-07-26T09:40:39.474Z,26.50
2018-07-26T09:43:07.702Z,26.58
2018-07-26T09:45:35.893Z,26.68
2018-07-26T09:48:04.298Z,26.70
2018-07-26T09:50:32.545Z,26.83
2018-07-26T09:53:00.926Z,26.91
2018-07-26T09:55:29.467Z,26.93
2018-07-26T09:57:57.790Z,26.96
2018-07-26T10:00:31.510Z,26.99
2018-07-26T10:02:59.770Z,27.03
2018-07-26T10:05:27.872Z,27.07
2018-07-26T10:07:56.928Z,27.02
2018-07-26T10:10:25.401Z,27.03
2018-07-26T10:12:53.489Z,27.02
2018-07-26T10:15:21.788Z,27.04
2018-07-26T10:17:50.027Z,27.04
2018-07-26T10:20:18.579Z,27.09
2018-07-26T10:22:46.894Z,27.20
2018-07-26T10:25:15.389Z,27.19
2018-07-26T10:27:43.704Z,27.25
2018-07-26T10:30:12.026Z,27.34
2018-07-26T10:32:40.285Z,27.41
2018-07-26T10:35:08.877Z,27.48
2018-07-26T10:37:37.167Z,27.39
2018-07-26T10:40:05.551Z,27.47
2018-07-26T10:42:33.806Z,27.47
2018-07-26T10:45:01.678Z,27.50
2018-07-26T10:47:29.933Z,27.52
2018-07-26T10:49:58.404Z,27.56
2018-07-26T10:52:26.714Z,27.56
2018-07-26T10:54:55.198Z,27.61
2018-07-26T10:57:23.570Z,27.67
2018-07-26T10:59:52.056Z,27.69
2018-07-26T11:02:20.327Z,27.71
2018-07-26T11:04:48.603Z,27.67
2018-07-26T11:07:16.765Z,27.59
2018-07-26T11:09:45.060Z,27.68
2018-07-26T11:12:13.317Z,27.81
2018-07-26T11:14:41.499Z,27.85
2018-07-26T11:17:09.874Z,27.71
2018-07-26T11:19:38.049Z,27.78
2018-07-26T11:22:06.321Z,27.97
2018-07-26T11:24:34.707Z,27.87
2018-07-26T11:27:02.992Z,27.95
2018-07-26T11:29:31.403Z,28.04
2018-07-26T11:31:59.311Z,28.16
2018-07-26T11:34:27.700Z,28.16
2018-07-26T11:36:56.080Z,28.15
2018-07-26T11:39:24.350Z,28.24
2018-07-26T11:41:52.735Z,28.32
2018-07-26T11:44:21.176Z,28.25
2018-07-26T11:46:49.689Z,28.31
2018-07-26T11:49:18.070Z,28.22
2018-07-26T11:51:46.445Z,28.23
2018-07-26T11:54:14.720Z,28.34
2018-07-26T11:56:43.198Z,28.33
2018-07-26T11:59:12.133Z,28.26
2018-07-26T12:01:40.381Z,28.19
2018-07-26T12:04:08.837Z,28.33
2018-07-26T12:06:37.213Z,28.40
2018-07-26T12:09:08.218Z,28.23
2018-07-26T12:11:36.533Z,28.15
2018-07-26T12:14:04.910Z,28.18
2018-07-26T12:16:33.293Z,28.23
2018-07-26T12:19:01.580Z,28.37
2018-07-26T12:21:29.951Z,28.19
2018-07-26T12:23:58.332Z,28.07
2018-07-26T12:26:26.801Z,28.05
2018-07-26T12:28:55.077Z,28.01
2018-07-26T12:31:23.509Z,27.99
2018-07-26T12:33:51.841Z,28.19
2018-07-26T12:36:20.015Z,28.30
2018-07-26T12:38:48.496Z,28.48
2018-07-26T12:41:16.771Z,28.49
2018-07-26T12:43:45.154Z,28.61
2018-07-26T12:46:13.430Z,28.61
2018-07-26T12:48:41.689Z,28.55
2018-07-26T12:51:09.976Z,28.31
2018-07-26T12:53:38.321Z,28.45
2018-07-26T12:56:06.730Z,28.50
2018-07-26T12:58:35.317Z,28.58
2018-07-26T13:01:03.790Z,28.37
2018-07-26T13:03:32.065Z,28.40
2018-07-26T13:06:00.471Z,28.66
2018-07-26T13:08:28.786Z,28.54
2018-07-26T13:10:56.886Z,28.58
2018-07-26T13:13:25.170Z,28.73
2018-07-26T13:15:53.550Z,28.79
2018-07-26T13:18:21.924Z,28.95
2018-07-26T13:20:50.302Z,28.67
2018-07-26T13:23:18.579Z,28.64
2018-07-26T13:25:47.174Z,28.59
2018-07-26T13:28:15.629Z,28.71
2018-07-26T13:30:44.075Z,28.78
2018-07-26T13:33:13.034Z,28.80
2018-07-26T13:35:41.649Z,28.58
2018-07-26T13:38:10.186Z,28.77
2018-07-26T13:40:38.809Z,28.79
2018-07-26T13:43:07.245Z,28.69
2018-07-26T13:45:35.834Z,28.74
2018-07-26T13:48:04.534Z,28.83
2018-07-26T13:50:33.108Z,28.80
2018-07-26T13:53:01.942Z,28.97
2018-07-26T13:55:31.026Z,29.03
2018-07-26T13:57:59.554Z,28.94
2018-07-26T14:00:27.831Z,28.79
2018-07-26T14:02:56.409Z,28.80
2018-07-26T14:05:24.687Z,28.77
2018-07-26T14:07:53.067Z,28.79
2018-07-26T14:10:21.275Z,28.99
2018-07-26T14:12:49.605Z,29.05
2018-07-26T14:15:18.223Z,29.00
2018-07-26T14:17:46.582Z,29.24
2018-07-26T14:20:14.990Z,29.28
2018-07-26T14:22:43.432Z,29.38
2018-07-26T14:25:11.838Z,29.00
2018-07-26T14:27:40.029Z,28.99
2018-07-26T14:30:08.826Z,28.85
2018-07-26T14:32:37.346Z,29.11
2018-07-26T14:35:06.047Z,29.05
2018-07-26T14:37:34.582Z,28.94
2018-07-26T14:40:03.002Z,29.04
2018-07-26T14:42:30.996Z,28.83
2018-07-26T14:44:59.352Z,29.03
2018-07-26T14:47:27.817Z,29.13
2018-07-26T14:49:55.749Z,28.86
2018-07-26T14:52:24.277Z,28.64
2018-07-26T14:54:52.662Z,28.66
2018-07-26T14:57:20.710Z,28.87
2018-07-26T14:59:48.997Z,28.87
2018-07-26T15:02:17.265Z,28.88
2018-07-26T15:04:45.564Z,28.86
2018-07-26T15:07:14.020Z,28.77
2018-07-26T15:09:42.372Z,28.72
2018-07-26T15:12:10.786Z,28.59
2018-07-26T15:14:38.953Z,28.65
2018-07-26T15:17:07.544Z,28.57
2018-07-26T15:19:36.065Z,28.49
2018-07-26T15:22:04.698Z,28.54
2018-07-26T15:24:33.886Z,28.57
2018-07-26T15:27:02.291Z,28.74
2018-07-26T15:29:30.551Z,28.59
2018-07-26T15:31:58.835Z,28.50
2018-07-26T15:34:27.193Z,28.51
2018-07-26T15:36:55.495Z,28.46
2018-07-26T15:39:23.761Z,28.28
2018-07-26T15:41:52.243Z,28.47
2018-07-26T15:44:20.412Z,28.56
2018-07-26T15:46:48.777Z,28.73
2018-07-26T15:49:17.074Z,28.56
2018-07-26T15:51:45.041Z,28.49
2018-07-26T15:54:13.521Z,28.42
2018-07-26T15:56:41.785Z,28.43
2018-07-26T15:59:09.710Z,28.38
2018-07-26T16:01:38.239Z,28.39
2018-07-26T16:04:06.466Z,28.42
2018-07-26T16:06:34.683Z,28.38
2018-07-26T16:09:02.966Z,28.29
2018-07-26T16:11:30.946Z,28.27
2018-07-26T16:13:58.853Z,28.38
2018-07-26T16:16:26.765Z,28.47
2018-07-26T16:18:54.709Z,28.40
2018-07-26T16:21:22.601Z,28.30
2018-07-26T16:23:50.498Z,28.08
2018-07-26T16:26:18.417Z,28.18
2018-07-26T16:28:46.462Z,28.15
2018-07-26T16:31:14.400Z,28.04
2018-07-26T16:33:42.514Z,28.18
2018-07-26T16:36:10.815Z,28.18
2018-07-26T16:38:39.395Z,28.17
2018-07-26T16:41:07.682Z,28.08
2018-07-26T16:43:36.168Z,28.01
2018-07-26T16:46:04.306Z,28.18
2018-07-26T16:48:32.819Z,28.35
2018-07-26T16:51:01.191Z,28.30
2018-07-26T16:53:29.254Z,28.30
2018-07-26T16:55:57.639Z,28.34
2018-07-26T16:58:26.321Z,28.23
2018-07-26T17:00:54.591Z,28.25
2018-07-26T17:03:22.978Z,28.22
2018-07-26T17:05:51.359Z,28.02
2018-07-26T17:08:19.729Z,27.81
2018-07-26T17:10:47.913Z,27.99
2018-07-26T17:13:16.382Z,27.85
2018-07-26T17:24:28.130Z,27.45
2018-07-26T17:26:56.406Z,27.38
2018-07-26T17:29:24.886Z,27.10
2018-07-26T17:31:53.050Z,26.98
2018-07-26T17:34:21.328Z,27.16
2018-07-26T17:40:30.972Z,27.15
2018-07-26T17:47:25.647Z,26.78
2018-07-26T17:59:51.752Z,26.45
2018-07-26T18:08:56.240Z,26.41
2018-07-26T18:11:25.457Z,26.24
2018-07-26T18:13:53.933Z,26.25
2018-07-26T18:16:22.824Z,26.26
2018-07-26T18:18:51.165Z,26.23
2018-07-26T18:21:19.790Z,26.23
2018-07-26T18:23:48.070Z,26.25
2018-07-26T18:26:16.623Z,26.21
2018-07-26T18:28:44.929Z,26.22
2018-07-26T18:31:13.307Z,26.18
2018-07-26T18:33:41.369Z,26.18
2018-07-26T18:36:09.654Z,26.21
2018-07-26T18:38:37.930Z,26.24
2018-07-26T18:41:06.175Z,26.25
2018-07-26T18:43:34.494Z,26.21
2018-07-26T18:46:02.957Z,26.21
2018-07-26T18:48:31.228Z,26.08
2018-07-26T18:50:59.510Z,26.05
2018-07-26T18:53:27.889Z,26.07
2018-07-26T18:55:56.158Z,26.17
2018-07-26T18:58:24.433Z,26.27
2018-07-26T19:00:52.909Z,26.29
2018-07-26T19:03:21.405Z,26.29
2018-07-26T19:05:49.674Z,26.24
2018-07-26T19:08:18.158Z,26.31
2018-07-26T19:10:46.458Z,26.30
2018-07-26T19:13:14.810Z,26.42
2018-07-26T19:15:43.178Z,26.42
2018-07-26T19:18:11.470Z,26.37
2018-07-26T19:20:39.431Z,26.27
2018-07-26T19:23:07.802Z,26.14
2018-07-26T19:25:36.081Z,25.97
2018-07-26T19:42:17.017Z,25.76
2018-07-26T19:53:17.642Z,25.77
2018-07-26T19:56:05.617Z,25.88
2018-07-26T20:03:11.105Z,25.80
2018-07-26T20:06:20.333Z,25.79
2018-07-26T20:18:42.193Z,25.61
2018-07-26T20:29:08.955Z,25.31
2018-07-26T20:36:43.196Z,25.33
2018-07-26T20:39:41.799Z,25.37
2018-07-26T20:42:59.752Z,25.40
2018-07-26T20:50:43.565Z,25.31
2018-07-26T20:53:52.610Z,25.26
2018-07-26T20:56:59.578Z,25.29
2018-07-26T21:03:27.680Z,25.31
2018-07-26T21:06:35.326Z,25.29
2018-07-26T21:09:41.959Z,25.33
2018-07-26T21:12:46.508Z,25.34
2018-07-26T21:15:46.894Z,25.24
2018-07-26T21:24:14.821Z,25.20
2018-07-26T21:27:03.026Z,25.16
2018-07-26T21:29:57.538Z,25.19
2018-07-26T21:33:06.977Z,25.25
2018-07-26T21:36:27.713Z,25.13
2018-07-26T21:48:29.624Z,25.31
2018-07-26T21:53:12.930Z,25.50
2018-07-26T21:59:08.348Z,25.54
2018-07-26T22:08:40.122Z,25.26
2018-07-26T22:11:51.115Z,25.29
2018-07-26T22:14:40.102Z,25.30
2018-07-26T22:18:13.254Z,25.19
2018-07-26T22:24:35.844Z,25.25
2018-07-26T22:27:29.659Z,25.16
2018-07-26T22:55:39.007Z,25.14
2018-07-26T23:11:13.779Z,25.19
2018-07-26T23:14:32.854Z,24.97
2018-07-26T23:17:17.618Z,24.91
2018-07-26T23:35:19.191Z,24.50
2018-07-26T23:41:28.046Z,24.08
2018-07-26T23:47:26.451Z,23.95
2018-07-26T23:53:11.177Z,23.97
